Halsteren, Netherlands
Current Conditions -  °F | °C
As of 3:25 PM on Saturday 25 Oct 2014 (Local Time) from EHWO Reporting Station
Scattered Clouds Scattered Clouds  
Wind Chill: 59°   Ceiling: Unl
Heat Index: 59°   Visibility: 6mi
Dew Point: 46°   Wind: 15mph
Humidity: 63%   Direction: 260°W
Pressure: 30.09"   Gusts: NA
Location:  51.53°N, 4.27°E
Report Text: EHWO 251325Z AUTO 26013KT 9999 FEW032 15/08 Q1019 BLU 26012KT 9999 SCT015 SCT030 BECMG SCT020 SCT034
Loading
Personal Weather Stations






























Interactive Weather Map
Tropical Storm Tracking
New forecast layout! Learn more

10-Day Weather Forecast

Advertisements
Track Severe Weather on mobile